• Join FlightAware (Why Join?)
  • Login
  • US Flag 
05:30AM EST


 

Airport Tracker/Info


-or-


 

Live Flight TrackerFlight Track Log ✈ AWE3988 ✈ 28-Apr-2013 ✈ KPHL - KMHT

Flight Track Log - Related Links

Times and Time Zones

All times are in EDT time to prevent confusion due to time zone crossing. See the AWE3988 flight status page for this flight to view local times or setup timezone preferences in your user account.

Time Position Orientation Groundspeed Altitude Reporting Facility
EDT Latitude Longitude Course Direction KTS MPH feet Rate Location/Type
02:15PM 39.8667 -75.2833 37° Northeast 166 191 800  Level Philadelphia TRACON
02:16PM 39.8167 -75.3333 218° Southwest 202 232 3,800 2,760 Climbing Philadelphia TRACON
02:17PM 39.7667 -75.3667 207° Southwest 209 241 7,000 2,700 Climbing Philadelphia TRACON
02:18PM 39.8120 -74.8433 105° East  Level FlightAware Approximate
02:18PM 39.7333 -75.3167 131° Southeast 263 303 9,300  Level Philadelphia TRACON
02:19PM 39.7857 -74.7117 105° East  Level FlightAware Approximate
02:19PM 39.7500 -75.2333 75° East 322 371 10,200  Level Philadelphia TRACON
02:20PM 39.8588 -74.6246 37° Northeast  Level FlightAware Approximate
02:20PM 39.7667 -75.1000 81° East 354 407 11,800  Level Philadelphia TRACON
02:22PM 39.7797 -74.8658 86° East 380 437 12,000 480 Climbing New York Center
02:23PM 39.7992 -74.7267 80° East 394 453 13,300 1,620 Climbing New York Center
02:24PM 39.8772 -74.6364 42° Northeast 358 412 15,300 1,980 Climbing New York Center
02:25PM 39.9633 -74.5517 37° Northeast 365 420 17,300 1,680 Climbing New York Center
02:26PM 40.0386 -74.4772 37° Northeast 365 420 18,800 1,320 Climbing New York Center
02:27PM 40.1311 -74.3844 37° Northeast 376 433 20,000 1,200 Climbing New York Center
02:28PM 40.2194 -74.2964 37° Northeast 381 438 21,200 1,080 Climbing New York Center
02:29PM 40.3094 -74.2058 37° Northeast 393 452 22,200 960 Climbing New York Center
02:30PM 40.4153 -74.1539 20° North 400 460 23,200 1,260 Climbing New York Center
02:31PM 40.5239 -74.1403 North 386 444 24,800 1,560 Climbing New York Center
02:32PM 40.6286 -74.1233 North 381 438 26,400 1,080 Climbing New York Center
02:33PM 40.7333 -74.1094 North 376 433 27,000 180 Climbing New York Center
02:35PM 40.9169 -74.0853 North 412 474 27,000  Level Boston Center
02:36PM 41.0278 -74.0689 North 406 467 27,000  Level Boston Center
02:37PM 41.1364 -74.0494 North 401 461 27,000  Level Boston Center
02:38PM 41.2450 -74.0331 North 396 456 27,000  Level Boston Center
02:39PM 41.3514 -74.0192 North 390 449 27,000  Level Boston Center
02:40PM 41.4581 -74.0022 North 385 443 27,000  Level Boston Center
02:41PM 41.5625 -73.9856 North 385 443 27,000  Level Boston Center
02:42PM 41.6689 -73.9686 North 385 443 27,000  Level Boston Center
02:43PM 41.7733 -73.9544 North 385 443 27,000  Level Boston Center
02:44PM 41.8819 -73.9403 North 367 422 27,000  Level Boston Center
02:45PM 41.9844 -73.9147 10° North 367 422 27,000 -240 Level Boston Center
02:46PM 42.0547 -73.7961 51° Northeast 364 419 26,600 -900 Descending Boston Center
02:47PM 42.1186 -73.6717 55° Northeast 393 452 25,200 -1,500 Descending Boston Center
02:48PM 42.1803 -73.5439 57° Northeast 407 468 23,700 -1,500 Descending Boston Center
02:49PM 42.2442 -73.4161 56° Northeast 412 474 22,200 -1,380 Descending Boston Center
02:50PM 42.3075 -73.2908 56° Northeast 393 452 21,000 -600 Descending Boston Center
02:51PM 42.3625 -73.1733 58° Northeast 397 457 21,000  Level Boston Center
02:52PM 42.4194 -73.0589 56° Northeast 391 450 21,000  Level Boston Center
02:53PM 42.4764 -72.9411 57° Northeast 381 438 21,000  Level Boston Center
02:54PM 42.5311 -72.8261 57° Northeast 370 426 21,000  Level Boston Center
02:55PM 42.5878 -72.7108 56° Northeast 365 420 21,000 -900 Level Boston Center
02:56PM 42.6317 -72.5925 63° Northeast 357 411 19,300 -1,800 Descending Boston Center
02:57PM 42.6650 -72.4628 71° East 351 404 17,400 -2,100 Descending Boston Center
02:58PM 42.7025 -72.3356 68° East 351 404 15,200 -2,400 Descending Boston Center
02:59PM 42.7442 -72.2083 66° East 338 389 12,600 -2,160 Descending Boston Center
03:00PM 42.7917 -72.1203 54° Northeast 323 372 10,900 -1,500 Descending Boston Center
03:01PM 42.8436 -72.0239 54° Northeast 291 335 9,400 -1,440 Descending Boston Center
03:02PM 42.8953 -71.9356 51° Northeast 274 315 7,800 -1,620 Descending Boston Center
03:03PM 42.9428 -71.8417 55° Northeast 274 315 6,200 -1,500 Descending Boston Center
03:04PM 42.9736 -71.7619 62° Northeast 264 304 4,800 -1,140 Descending Boston Center
03:05PM 43.0064 -71.6622 66° East 264 304 4,000 -1,020 Descending Boston Center
03:06PM 43.0244 -71.5881 72° East 242 278 2,800 -900 Descending Boston Center
03:07PM 43.0342 -71.5000 81° East 218 251 2,200 -600 Descending Boston Center